createdAt,value
2019-06-20T00:02:15.901Z,99.90
2019-06-20T00:04:45.816Z,99.90
2019-06-20T00:07:15.742Z,99.90
2019-06-20T00:09:45.593Z,99.90
2019-06-20T00:12:15.549Z,99.90
2019-06-20T00:14:45.470Z,99.90
2019-06-20T00:17:15.294Z,99.90
2019-06-20T00:19:45.128Z,99.90
2019-06-20T00:22:14.940Z,99.90
2019-06-20T00:24:44.837Z,99.90
2019-06-20T00:27:14.650Z,99.90
2019-06-20T00:29:44.473Z,99.90
2019-06-20T00:32:14.364Z,99.90
2019-06-20T00:34:44.389Z,99.90
2019-06-20T00:37:14.370Z,99.90
2019-06-20T00:39:44.176Z,99.90
2019-06-20T00:42:13.990Z,99.90
2019-06-20T00:44:44.048Z,99.90
2019-06-20T00:47:13.929Z,99.90
2019-06-20T00:49:43.707Z,99.90
2019-06-20T00:52:13.530Z,99.90
2019-06-20T00:54:43.583Z,99.90
2019-06-20T00:57:13.402Z,99.90
2019-06-20T00:59:43.317Z,99.90
2019-06-20T01:02:13.230Z,99.90
2019-06-20T01:04:43.202Z,99.90
2019-06-20T01:07:13.049Z,99.90
2019-06-20T01:09:42.882Z,99.90
2019-06-20T01:12:12.695Z,99.90
2019-06-20T01:14:42.610Z,99.90
2019-06-20T01:17:12.457Z,99.90
2019-06-20T01:19:42.270Z,99.90
2019-06-20T01:22:12.085Z,99.90
2019-06-20T01:24:41.974Z,99.90
2019-06-20T01:27:11.774Z,99.90
2019-06-20T01:29:41.588Z,99.90
2019-06-20T01:32:11.411Z,99.90
2019-06-20T01:34:41.338Z,99.90
2019-06-20T01:37:11.229Z,99.90
2019-06-20T01:39:41.182Z,99.90
2019-06-20T01:42:11.045Z,99.90
2019-06-20T01:44:41.064Z,99.90
2019-06-20T01:47:10.901Z,99.90
2019-06-20T01:49:40.751Z,99.90
2019-06-20T01:52:10.537Z,99.90
2019-06-20T01:54:40.426Z,99.90
2019-06-20T01:57:10.279Z,99.90
2019-06-20T01:59:40.084Z,99.90
2019-06-20T02:02:10.429Z,99.90
2019-06-20T02:04:40.410Z,99.90
2019-06-20T02:07:10.335Z,99.90
2019-06-20T02:09:40.182Z,99.90
2019-06-20T02:12:10.022Z,99.90
2019-06-20T02:14:40.061Z,99.90
2019-06-20T02:17:09.902Z,99.90
2019-06-20T02:19:39.713Z,99.90
2019-06-20T02:22:09.566Z,99.90
2019-06-20T02:24:39.507Z,99.90
2019-06-20T02:27:09.333Z,99.90
2019-06-20T02:29:39.155Z,99.90
2019-06-20T02:32:08.979Z,99.90
2019-06-20T02:34:38.893Z,99.90
2019-06-20T02:37:24.740Z,99.90
2019-06-20T02:39:54.551Z,99.90
2019-06-20T02:42:24.362Z,99.90
2019-06-20T02:44:54.288Z,99.90
2019-06-20T02:47:24.115Z,99.90
2019-06-20T02:49:53.947Z,99.90
2019-06-20T02:52:24.557Z,99.90
2019-06-20T02:54:54.449Z,99.90
2019-06-20T02:57:24.378Z,99.90
2019-06-20T02:59:54.674Z,99.90
2019-06-20T03:02:24.562Z,99.90
2019-06-20T03:04:54.525Z,99.90
2019-06-20T03:07:24.351Z,99.90
2019-06-20T03:09:54.301Z,99.90
2019-06-20T03:12:24.125Z,99.90
2019-06-20T03:14:53.978Z,99.90
2019-06-20T03:17:23.790Z,99.90
2019-06-20T03:19:53.607Z,99.90
2019-06-20T03:22:23.421Z,99.90
2019-06-20T03:24:53.341Z,99.90
2019-06-20T03:27:23.190Z,99.90
2019-06-20T03:29:53.017Z,99.90
2019-06-20T03:32:22.863Z,99.90
2019-06-20T03:34:52.791Z,99.90
2019-06-20T03:37:22.690Z,99.90
2019-06-20T03:39:52.686Z,99.90
2019-06-20T03:42:22.517Z,99.90
2019-06-20T03:45:01.681Z,99.90
2019-06-20T03:47:23.931Z,99.90
2019-06-20T03:49:59.632Z,99.90
2019-06-20T03:52:29.461Z,99.90
2019-06-20T03:54:59.373Z,99.90
2019-06-20T03:57:29.209Z,99.90
2019-06-20T03:59:59.059Z,99.90
2019-06-20T04:02:28.871Z,99.90
2019-06-20T04:04:58.733Z,99.90
2019-06-20T04:07:29.744Z,99.90
2019-06-20T04:09:59.582Z,99.90
2019-06-20T04:12:29.400Z,99.90
2019-06-20T04:15:00.392Z,99.90
2019-06-20T04:17:30.242Z,99.90
2019-06-20T04:20:00.086Z,99.90
2019-06-20T04:22:30.150Z,99.90
2019-06-20T04:25:02.151Z,99.90
2019-06-20T04:27:32.185Z,99.90
2019-06-20T04:30:02.085Z,99.90
2019-06-20T04:32:32.237Z,99.90
2019-06-20T04:35:02.236Z,99.90
2019-06-20T04:37:32.511Z,99.90
2019-06-20T04:40:02.547Z,99.90
2019-06-20T04:42:32.446Z,99.90
2019-06-20T04:45:06.860Z,99.90
2019-06-20T04:47:36.780Z,99.90
2019-06-20T04:50:06.676Z,99.90
2019-06-20T04:52:36.529Z,99.90
2019-06-20T04:55:06.876Z,99.90
2019-06-20T04:57:36.787Z,99.90
2019-06-20T05:00:07.663Z,99.90
2019-06-20T05:02:37.696Z,99.90
2019-06-20T05:05:09.305Z,99.90
2019-06-20T05:07:39.214Z,99.90
2019-06-20T05:10:09.301Z,99.90
2019-06-20T05:12:39.190Z,99.90
2019-06-20T05:15:09.379Z,99.90
2019-06-20T05:17:39.509Z,99.90
2019-06-20T05:20:09.421Z,99.90
2019-06-20T05:22:39.330Z,99.90
2019-06-20T05:25:09.488Z,99.90
2019-06-20T05:27:39.516Z,99.90
2019-06-20T05:30:11.342Z,99.90
2019-06-20T05:32:41.236Z,99.90
2019-06-20T05:35:11.440Z,99.90
2019-06-20T05:37:41.666Z,99.90
2019-06-20T05:40:11.937Z,99.90
2019-06-20T05:42:42.630Z,99.90
2019-06-20T05:45:13.266Z,99.90
2019-06-20T05:47:43.390Z,99.90
2019-06-20T05:50:13.607Z,99.90
2019-06-20T05:52:43.613Z,99.90
2019-06-20T05:55:14.004Z,99.90
2019-06-20T05:57:44.057Z,99.90
2019-06-20T06:00:15.640Z,99.90
2019-06-20T06:02:45.591Z,99.90
2019-06-20T06:05:15.993Z,99.90
2019-06-20T06:07:45.969Z,99.90
2019-06-20T06:10:16.842Z,99.90
2019-06-20T06:12:46.775Z,99.90
2019-06-20T06:15:18.306Z,99.90
2019-06-20T06:17:48.245Z,99.90
2019-06-20T06:20:18.715Z,99.90
2019-06-20T06:22:48.623Z,99.90
2019-06-20T06:25:19.118Z,99.90
2019-06-20T06:27:49.030Z,99.90
2019-06-20T06:30:19.346Z,99.90
2019-06-20T06:32:49.394Z,99.90
2019-06-20T06:35:19.718Z,99.90
2019-06-20T06:37:49.703Z,99.90
2019-06-20T06:40:20.306Z,99.90
2019-06-20T06:42:50.398Z,99.90
2019-06-20T06:45:20.677Z,99.90
2019-06-20T06:47:50.598Z,99.90
2019-06-20T06:50:20.820Z,99.90
2019-06-20T06:52:50.653Z,99.90
2019-06-20T06:55:20.955Z,99.90
2019-06-20T06:57:50.855Z,99.90
2019-06-20T07:00:20.938Z,99.90
2019-06-20T07:02:50.874Z,99.90
2019-06-20T07:05:21.096Z,99.90
2019-06-20T07:07:50.945Z,99.90
2019-06-20T07:10:21.366Z,99.90
2019-06-20T07:12:51.349Z,99.90
2019-06-20T07:15:21.698Z,99.90
2019-06-20T07:17:51.597Z,99.90
2019-06-20T07:20:22.142Z,99.90
2019-06-20T07:22:52.116Z,99.90
2019-06-20T07:25:22.378Z,99.90
2019-06-20T07:27:52.303Z,99.90
2019-06-20T07:30:22.381Z,99.90
2019-06-20T07:32:52.232Z,99.90
2019-06-20T07:35:22.332Z,99.90
2019-06-20T07:37:52.324Z,99.90
2019-06-20T07:40:22.378Z,99.90
2019-06-20T07:42:52.290Z,99.90
2019-06-20T07:45:27.937Z,99.90
2019-06-20T07:47:57.906Z,99.90
2019-06-20T07:50:27.857Z,99.90
2019-06-20T07:53:02.379Z,99.90
2019-06-20T07:55:29.584Z,99.90
2019-06-20T07:57:59.616Z,99.90
2019-06-20T08:00:29.885Z,99.90
2019-06-20T08:02:59.803Z,99.90
2019-06-20T08:05:29.866Z,99.90
2019-06-20T08:07:59.746Z,99.90
2019-06-20T08:10:29.933Z,99.90
2019-06-20T08:12:59.845Z,99.90
2019-06-20T08:15:29.850Z,99.90
2019-06-20T08:17:59.766Z,99.90
2019-06-20T08:20:29.917Z,99.90
2019-06-20T08:22:59.832Z,99.90
2019-06-20T08:25:29.803Z,99.90
2019-06-20T08:28:00.780Z,99.90
2019-06-20T08:30:32.637Z,99.90
2019-06-20T08:33:08.719Z,99.90
2019-06-20T08:35:34.732Z,99.90
2019-06-20T08:38:07.062Z,99.90
2019-06-20T08:40:43.610Z,99.90
2019-06-20T08:43:14.029Z,99.90
2019-06-20T08:45:44.950Z,99.90
2019-06-20T08:48:15.047Z,99.90
2019-06-20T08:50:45.198Z,99.90
2019-06-20T08:53:15.120Z,99.90
2019-06-20T08:55:45.334Z,99.90
2019-06-20T08:58:15.427Z,99.90
2019-06-20T09:00:45.672Z,99.90
2019-06-20T09:03:15.611Z,99.90
2019-06-20T09:05:45.717Z,99.90
2019-06-20T09:08:15.725Z,99.90
2019-06-20T09:10:45.734Z,99.90
2019-06-20T09:13:15.873Z,99.90
2019-06-20T09:15:46.131Z,99.90
2019-06-20T09:18:16.107Z,99.90
2019-06-20T09:20:46.132Z,99.90
2019-06-20T09:23:16.114Z,99.90
2019-06-20T09:25:46.051Z,99.90
2019-06-20T09:28:16.068Z,99.90
2019-06-20T09:30:46.065Z,99.90
2019-06-20T09:33:16.142Z,99.90
2019-06-20T09:35:46.203Z,99.90
2019-06-20T09:38:16.097Z,99.90
2019-06-20T09:40:46.593Z,99.90
2019-06-20T09:43:27.111Z,99.90
2019-06-20T09:45:49.551Z,99.90
2019-06-20T09:48:20.061Z,99.90
2019-06-20T09:50:51.707Z,99.90
2019-06-20T09:53:21.729Z,99.90
2019-06-20T09:55:51.887Z,99.90
2019-06-20T09:58:21.870Z,99.90
2019-06-20T10:00:52.789Z,99.90
2019-06-20T10:03:23.230Z,99.90
2019-06-20T10:05:54.650Z,99.90
2019-06-20T10:08:24.739Z,99.90
2019-06-20T10:10:54.642Z,99.90
2019-06-20T10:13:24.831Z,99.90
2019-06-20T10:15:55.692Z,99.90
2019-06-20T10:18:25.716Z,99.90
2019-06-20T10:20:55.754Z,99.90
2019-06-20T10:23:25.726Z,99.90
2019-06-20T10:25:55.762Z,99.90
2019-06-20T10:28:25.674Z,99.90
2019-06-20T10:30:55.747Z,99.90
2019-06-20T10:33:25.650Z,99.90
2019-06-20T10:35:57.149Z,99.90
2019-06-20T10:38:27.294Z,99.90
2019-06-20T10:40:59.906Z,99.90
2019-06-20T10:43:28.998Z,99.90
2019-06-20T10:45:59.166Z,99.90
2019-06-20T10:48:29.286Z,99.90
2019-06-20T10:51:18.041Z,99.90
2019-06-20T10:53:49.225Z,99.90
2019-06-20T10:56:19.148Z,99.90
2019-06-20T10:58:50.632Z,99.90
2019-06-20T11:01:20.965Z,99.90
2019-06-20T11:03:51.072Z,99.90
2019-06-20T11:06:21.202Z,99.90
2019-06-20T11:08:51.241Z,99.90
2019-06-20T11:11:21.123Z,99.90
2019-06-20T11:13:51.252Z,99.90
2019-06-20T11:16:21.396Z,99.90
2019-06-20T11:18:51.329Z,99.90
2019-06-20T11:21:21.206Z,99.90
2019-06-20T11:23:51.127Z,99.90
2019-06-20T11:26:21.038Z,99.90
2019-06-20T11:28:52.354Z,99.90
2019-06-20T11:31:22.510Z,99.90
2019-06-20T11:33:52.551Z,98.90
2019-06-20T11:36:22.503Z,99.90
2019-06-20T11:38:52.520Z,95.20
2019-06-20T11:41:22.556Z,96.50
2019-06-20T11:43:55.659Z,99.60
2019-06-20T11:46:25.813Z,99.60
2019-06-20T11:48:55.767Z,96.90
2019-06-20T11:51:25.633Z,96.60
2019-06-20T11:53:55.738Z,94.40
2019-06-20T11:56:25.757Z,92.30
2019-06-20T11:58:55.667Z,97.10
2019-06-20T12:01:32.954Z,94.30
2019-06-20T12:03:57.280Z,90.90
2019-06-20T12:06:27.186Z,94.70
2019-06-20T12:08:57.059Z,95.00
2019-06-20T12:11:27.007Z,94.10
2019-06-20T12:13:56.951Z,93.60
2019-06-20T12:16:26.983Z,92.90
2019-06-20T12:18:56.923Z,97.30
2019-06-20T12:21:26.854Z,94.20
2019-06-20T12:23:56.838Z,93.30
2019-06-20T12:26:26.882Z,93.10
2019-06-20T12:28:56.808Z,93.60
2019-06-20T12:31:26.744Z,91.30
2019-06-20T12:33:56.712Z,93.80
2019-06-20T12:36:26.629Z,86.20
2019-06-20T12:38:56.629Z,88.70
2019-06-20T12:41:26.927Z,86.40
2019-06-20T12:43:56.823Z,88.10
2019-06-20T12:46:26.702Z,91.80
2019-06-20T12:48:56.722Z,89.20
2019-06-20T12:51:26.691Z,93.50
2019-06-20T12:53:56.630Z,87.30
2019-06-20T12:56:26.636Z,91.40
2019-06-20T12:58:56.553Z,85.30
2019-06-20T13:01:35.859Z,82.20
2019-06-20T13:03:58.137Z,80.30
2019-06-20T13:06:28.188Z,86.10
2019-06-20T13:08:58.193Z,87.00
2019-06-20T13:11:28.151Z,87.00
2019-06-20T13:13:59.230Z,81.70
2019-06-20T13:16:29.198Z,86.80
2019-06-20T13:18:59.194Z,81.80
2019-06-20T13:21:29.057Z,86.60
2019-06-20T13:23:59.085Z,80.00
2019-06-20T13:26:28.961Z,81.00
2019-06-20T13:29:04.003Z,82.50
2019-06-20T13:31:30.541Z,85.10
2019-06-20T13:34:00.677Z,85.20
2019-06-20T13:36:30.748Z,80.20
2019-06-20T13:39:00.662Z,82.10
2019-06-20T13:41:30.755Z,75.50
2019-06-20T13:44:00.779Z,76.80
2019-06-20T13:46:30.716Z,78.00
2019-06-20T13:49:00.668Z,79.40
2019-06-20T13:51:30.656Z,85.30
2019-06-20T13:54:00.747Z,88.30
2019-06-20T13:56:31.007Z,89.20
2019-06-20T13:59:01.521Z,88.20
2019-06-20T14:01:31.493Z,88.40
2019-06-20T14:04:01.699Z,95.20
2019-06-20T14:06:42.618Z,90.90
2019-06-20T14:09:13.752Z,94.90
2019-06-20T14:11:45.368Z,99.50
2019-06-20T14:14:16.275Z,99.90
2019-06-20T14:16:46.298Z,99.90
2019-06-20T14:19:16.279Z,99.90
2019-06-20T14:21:47.229Z,99.90
2019-06-20T14:24:17.338Z,99.90
2019-06-20T14:26:48.210Z,99.90
2019-06-20T14:29:18.259Z,99.90
2019-06-20T14:31:49.265Z,99.90
2019-06-20T14:34:19.273Z,99.90
2019-06-20T14:36:50.565Z,99.90
2019-06-20T14:39:20.830Z,99.90
2019-06-20T14:41:51.444Z,99.90
2019-06-20T14:44:21.695Z,99.90
2019-06-20T14:46:52.728Z,99.90
2019-06-20T14:49:23.478Z,99.90
2019-06-20T14:51:55.014Z,99.90
2019-06-20T14:54:26.212Z,99.90
2019-06-20T14:56:58.170Z,99.90
2019-06-20T14:59:27.806Z,99.90
2019-06-20T15:01:57.894Z,99.90
2019-06-20T15:04:28.035Z,99.90
2019-06-20T15:06:58.170Z,99.90
2019-06-20T15:09:28.095Z,99.90
2019-06-20T15:11:58.058Z,99.90
2019-06-20T15:14:28.131Z,99.90
2019-06-20T15:16:58.052Z,99.90
2019-06-20T15:19:27.970Z,99.90
2019-06-20T15:21:57.972Z,99.90
2019-06-20T15:24:29.038Z,99.90
2019-06-20T15:26:59.074Z,99.90
2019-06-20T15:29:29.042Z,99.90
2019-06-20T15:31:59.021Z,99.90
2019-06-20T15:34:29.102Z,99.90
2019-06-20T15:36:59.030Z,99.90
2019-06-20T15:39:28.973Z,99.90
2019-06-20T15:41:58.957Z,99.90
2019-06-20T15:44:28.965Z,99.90
2019-06-20T15:46:58.894Z,99.90
2019-06-20T15:49:28.771Z,99.90
2019-06-20T15:51:59.231Z,99.90
2019-06-20T15:54:29.453Z,99.90
2019-06-20T15:56:59.396Z,99.90
2019-06-20T15:59:29.502Z,99.90
2019-06-20T16:01:59.475Z,99.90
2019-06-20T16:04:29.442Z,99.90
2019-06-20T16:06:59.445Z,99.90
2019-06-20T16:09:29.373Z,99.90
2019-06-20T16:11:59.434Z,99.90
2019-06-20T16:14:29.690Z,99.90
2019-06-20T16:16:59.623Z,99.90
2019-06-20T16:19:29.502Z,99.90
2019-06-20T16:21:59.409Z,99.90
2019-06-20T16:24:29.342Z,99.90
2019-06-20T16:26:59.266Z,99.90
2019-06-20T16:29:29.331Z,99.90
2019-06-20T16:31:59.273Z,99.90
2019-06-20T16:34:29.823Z,99.90
2019-06-20T16:37:09.721Z,99.90
2019-06-20T16:39:31.283Z,99.90
2019-06-20T16:42:05.280Z,99.90
2019-06-20T16:44:35.397Z,99.90
2019-06-20T16:47:05.429Z,99.90
2019-06-20T16:49:35.371Z,99.90
2019-06-20T16:52:05.352Z,99.90
2019-06-20T16:54:35.301Z,99.90
2019-06-20T16:57:05.308Z,99.90
2019-06-20T16:59:35.220Z,99.90
2019-06-20T17:02:05.243Z,99.90
2019-06-20T17:04:35.378Z,99.90
2019-06-20T17:07:05.417Z,99.90
2019-06-20T17:09:35.485Z,99.90
2019-06-20T17:12:05.506Z,99.90
2019-06-20T17:14:35.502Z,99.90
2019-06-20T17:17:05.720Z,99.90
2019-06-20T17:19:35.679Z,99.90
2019-06-20T17:22:05.722Z,99.90
2019-06-20T17:24:35.685Z,99.90
2019-06-20T17:27:05.827Z,99.90
2019-06-20T17:29:35.720Z,99.90
2019-06-20T17:32:05.725Z,99.90
2019-06-20T17:34:35.784Z,99.90
2019-06-20T17:37:05.841Z,99.90
2019-06-20T17:39:35.781Z,99.90
2019-06-20T17:42:05.910Z,99.90
2019-06-20T17:44:35.904Z,99.90
2019-06-20T17:47:05.944Z,99.90
2019-06-20T17:49:35.876Z,99.90
2019-06-20T17:52:05.979Z,99.90
2019-06-20T17:54:35.938Z,99.90
2019-06-20T17:57:05.937Z,99.90
2019-06-20T17:59:35.830Z,99.90
2019-06-20T18:02:05.907Z,99.90
2019-06-20T18:04:36.882Z,99.90
2019-06-20T18:07:06.892Z,99.90
2019-06-20T18:09:36.878Z,99.90
2019-06-20T18:12:06.839Z,99.90
2019-06-20T18:14:36.930Z,99.90
2019-06-20T18:17:06.883Z,99.90
2019-06-20T18:19:37.162Z,99.90
2019-06-20T18:22:07.057Z,99.90
2019-06-20T18:24:37.059Z,99.90
2019-06-20T18:27:06.974Z,99.90
2019-06-20T18:29:36.885Z,99.90
2019-06-20T18:32:06.786Z,99.90
2019-06-20T18:34:37.735Z,99.90
2019-06-20T18:37:07.705Z,99.90
2019-06-20T18:39:37.602Z,99.90
2019-06-20T18:42:07.531Z,99.90
2019-06-20T18:44:37.617Z,99.90
2019-06-20T18:47:07.533Z,99.90
2019-06-20T18:49:37.458Z,99.90
2019-06-20T18:52:07.428Z,99.90
2019-06-20T18:54:38.355Z,99.90
2019-06-20T18:57:08.286Z,99.90
2019-06-20T18:59:39.012Z,99.90
2019-06-20T19:02:09.006Z,99.90
2019-06-20T19:04:47.866Z,99.90
2019-06-20T19:07:10.635Z,99.90
2019-06-20T19:09:40.531Z,99.90
2019-06-20T19:12:10.458Z,99.90
2019-06-20T19:14:40.485Z,99.90
2019-06-20T19:17:10.362Z,99.90
2019-06-20T19:19:40.366Z,99.90
2019-06-20T19:22:10.283Z,99.90
2019-06-20T19:24:40.403Z,99.90
2019-06-20T19:27:10.574Z,99.90
2019-06-20T19:29:40.486Z,99.90
2019-06-20T19:32:10.462Z,99.90
2019-06-20T19:34:40.466Z,99.90
2019-06-20T19:37:10.435Z,99.90
2019-06-20T19:39:40.333Z,99.90
2019-06-20T19:42:11.767Z,99.90
2019-06-20T19:44:41.834Z,99.90
2019-06-20T19:47:11.934Z,99.90
2019-06-20T19:49:42.081Z,99.90
2019-06-20T19:52:11.939Z,99.90
2019-06-20T19:54:44.465Z,99.90
2019-06-20T19:57:14.338Z,99.90
2019-06-20T19:59:46.232Z,99.90
2019-06-20T20:02:15.955Z,99.90
2019-06-20T20:04:45.835Z,99.90
2019-06-20T20:07:15.754Z,99.90
2019-06-20T20:09:45.686Z,99.90
2019-06-20T20:12:15.701Z,99.90
2019-06-20T20:14:45.591Z,99.90
2019-06-20T20:17:15.498Z,99.90
2019-06-20T20:19:45.416Z,99.90
2019-06-20T20:22:15.298Z,99.90
2019-06-20T20:24:45.415Z,99.90
2019-06-20T20:27:15.283Z,99.90
2019-06-20T20:29:45.129Z,99.90
2019-06-20T20:32:14.975Z,99.90
2019-06-20T20:34:44.945Z,99.90
2019-06-20T20:37:14.786Z,99.90
2019-06-20T20:39:44.605Z,99.90
2019-06-20T20:42:17.639Z,99.90
2019-06-20T20:44:46.009Z,99.90
2019-06-20T20:47:15.878Z,99.90
2019-06-20T20:49:45.686Z,99.90
2019-06-20T20:52:15.507Z,99.90
2019-06-20T20:54:45.477Z,99.90
2019-06-20T20:57:15.329Z,99.90
2019-06-20T20:59:45.141Z,99.90
2019-06-20T21:02:14.954Z,99.90
2019-06-20T21:04:44.809Z,99.90
2019-06-20T21:07:14.631Z,99.90
2019-06-20T21:09:44.458Z,99.90
2019-06-20T21:12:14.383Z,99.90
2019-06-20T21:14:44.269Z,99.90
2019-06-20T21:17:14.087Z,99.90
2019-06-20T21:19:43.901Z,99.90
2019-06-20T21:22:13.758Z,99.90
2019-06-20T21:24:43.620Z,99.90
2019-06-20T21:27:13.529Z,99.90
2019-06-20T21:29:43.360Z,99.90
2019-06-20T21:32:13.192Z,99.90
2019-06-20T21:34:43.054Z,99.90
2019-06-20T21:37:12.878Z,99.90
2019-06-20T21:39:42.767Z,99.90
2019-06-20T21:42:12.598Z,99.90
2019-06-20T21:44:44.474Z,99.90
2019-06-20T21:47:14.445Z,99.90
2019-06-20T21:49:44.302Z,99.90
2019-06-20T21:52:14.175Z,99.90
2019-06-20T21:54:44.026Z,99.90
2019-06-20T21:57:13.847Z,99.90
2019-06-20T21:59:43.673Z,99.90
2019-06-20T22:02:13.600Z,99.90
2019-06-20T22:04:54.129Z,99.90
2019-06-20T22:07:15.325Z,99.90
2019-06-20T22:09:45.149Z,99.90
2019-06-20T22:12:14.986Z,99.90
2019-06-20T22:14:44.877Z,99.90
2019-06-20T22:17:15.187Z,99.90
2019-06-20T22:19:45.033Z,99.90
2019-06-20T22:22:14.994Z,99.90
2019-06-20T22:24:44.832Z,99.90
2019-06-20T22:27:14.668Z,99.90
2019-06-20T22:29:44.631Z,99.90
2019-06-20T22:32:14.440Z,99.90
2019-06-20T22:34:44.686Z,99.90
2019-06-20T22:37:14.517Z,99.90
2019-06-20T22:39:44.374Z,99.90
2019-06-20T22:42:14.201Z,99.90
2019-06-20T22:44:44.060Z,99.90
2019-06-20T22:47:14.442Z,99.90
2019-06-20T22:49:44.287Z,99.90
2019-06-20T22:52:14.125Z,99.90
2019-06-20T22:54:44.027Z,99.90
2019-06-20T22:57:13.838Z,99.90
2019-06-20T22:59:46.578Z,99.90
2019-06-20T23:02:15.159Z,99.90
2019-06-20T23:04:45.014Z,99.90
2019-06-20T23:07:14.832Z,99.90
2019-06-20T23:09:44.709Z,99.90
2019-06-20T23:12:14.531Z,99.90
2019-06-20T23:14:44.511Z,99.90
2019-06-20T23:17:14.303Z,99.90
2019-06-20T23:19:44.162Z,99.90
2019-06-20T23:22:13.967Z,99.90
2019-06-20T23:24:43.822Z,99.90
2019-06-20T23:27:14.303Z,99.90
2019-06-20T23:29:44.504Z,99.90
2019-06-20T23:32:14.346Z,99.90
2019-06-20T23:34:44.298Z,99.90
2019-06-20T23:37:14.117Z,99.90
2019-06-20T23:39:44.044Z,99.90
2019-06-20T23:42:13.998Z,99.90
2019-06-20T23:44:43.846Z,99.90
2019-06-20T23:47:13.709Z,99.90
2019-06-20T23:49:43.606Z,99.90
2019-06-20T23:52:17.695Z,99.90
2019-06-20T23:54:47.605Z,99.90
2019-06-20T23:57:17.430Z,99.90
2019-06-20T23:59:47.278Z,99.90
